sensor_id;sensor_type;location;lat;lon;timestamp;P1;durP1;ratioP1;P2;durP2;ratioP2
59442;SDS011;45247;47.466;19.004;2022-07-24T00:00:38;16.88;;;10.43;;
59442;SDS011;45247;47.466;19.004;2022-07-24T00:03:07;14.90;;;10.75;;
59442;SDS011;45247;47.466;19.004;2022-07-24T00:05:35;17.50;;;11.27;;
59442;SDS011;45247;47.466;19.004;2022-07-24T00:08:03;18.17;;;10.57;;
59442;SDS011;45247;47.466;19.004;2022-07-24T00:10:32;22.38;;;10.50;;
59442;SDS011;45247;47.466;19.004;2022-07-24T00:13:00;18.15;;;10.90;;
59442;SDS011;45247;47.466;19.004;2022-07-24T00:15:30;23.60;;;11.25;;
59442;SDS011;45247;47.466;19.004;2022-07-24T00:17:58;17.75;;;11.50;;
59442;SDS011;45247;47.466;19.004;2022-07-24T00:20:26;16.85;;;10.93;;
59442;SDS011;45247;47.466;19.004;2022-07-24T00:22:54;19.30;;;12.10;;
59442;SDS011;45247;47.466;19.004;2022-07-24T00:25:22;15.85;;;11.23;;
59442;SDS011;45247;47.466;19.004;2022-07-24T00:27:50;16.10;;;10.95;;
59442;SDS011;45247;47.466;19.004;2022-07-24T00:30:19;17.13;;;11.48;;
59442;SDS011;45247;47.466;19.004;2022-07-24T00:32:48;15.10;;;10.27;;
59442;SDS011;45247;47.466;19.004;2022-07-24T00:35:16;16.10;;;11.07;;
59442;SDS011;45247;47.466;19.004;2022-07-24T00:37:45;16.40;;;11.30;;
59442;SDS011;45247;47.466;19.004;2022-07-24T00:40:13;15.32;;;11.07;;
59442;SDS011;45247;47.466;19.004;2022-07-24T00:42:42;13.95;;;10.60;;
59442;SDS011;45247;47.466;19.004;2022-07-24T00:45:10;14.52;;;10.52;;
59442;SDS011;45247;47.466;19.004;2022-07-24T00:47:52;22.73;;;11.68;;
59442;SDS011;45247;47.466;19.004;2022-07-24T00:50:23;17.02;;;11.75;;
59442;SDS011;45247;47.466;19.004;2022-07-24T00:52:51;23.33;;;12.07;;
59442;SDS011;45247;47.466;19.004;2022-07-24T00:55:20;15.73;;;10.40;;
59442;SDS011;45247;47.466;19.004;2022-07-24T00:57:48;17.13;;;12.15;;
59442;SDS011;45247;47.466;19.004;2022-07-24T01:00:17;15.27;;;10.85;;
59442;SDS011;45247;47.466;19.004;2022-07-24T01:02:49;18.30;;;10.93;;
59442;SDS011;45247;47.466;19.004;2022-07-24T01:05:20;18.67;;;10.85;;
59442;SDS011;45247;47.466;19.004;2022-07-24T01:07:48;17.05;;;10.90;;
59442;SDS011;45247;47.466;19.004;2022-07-24T01:10:16;15.98;;;9.80;;
59442;SDS011;45247;47.466;19.004;2022-07-24T01:12:44;19.88;;;10.32;;
59442;SDS011;45247;47.466;19.004;2022-07-24T01:15:12;17.33;;;10.82;;
59442;SDS011;45247;47.466;19.004;2022-07-24T01:17:41;14.43;;;10.88;;
59442;SDS011;45247;47.466;19.004;2022-07-24T01:20:11;14.85;;;9.48;;
59442;SDS011;45247;47.466;19.004;2022-07-24T01:22:41;19.75;;;9.98;;
59442;SDS011;45247;47.466;19.004;2022-07-24T01:25:09;14.30;;;9.93;;
59442;SDS011;45247;47.466;19.004;2022-07-24T01:27:38;11.63;;;8.60;;
59442;SDS011;45247;47.466;19.004;2022-07-24T01:30:07;15.00;;;9.48;;
59442;SDS011;45247;47.466;19.004;2022-07-24T01:32:36;15.55;;;9.35;;
59442;SDS011;45247;47.466;19.004;2022-07-24T01:35:05;14.05;;;9.02;;
59442;SDS011;45247;47.466;19.004;2022-07-24T01:37:34;13.88;;;7.75;;
59442;SDS011;45247;47.466;19.004;2022-07-24T01:40:03;15.30;;;8.82;;
59442;SDS011;45247;47.466;19.004;2022-07-24T01:42:32;13.10;;;8.80;;
59442;SDS011;45247;47.466;19.004;2022-07-24T01:45:01;12.75;;;8.60;;
59442;SDS011;45247;47.466;19.004;2022-07-24T01:47:29;24.40;;;8.88;;
59442;SDS011;45247;47.466;19.004;2022-07-24T01:49:57;12.23;;;7.95;;
59442;SDS011;45247;47.466;19.004;2022-07-24T01:52:25;16.35;;;7.88;;
59442;SDS011;45247;47.466;19.004;2022-07-24T01:54:53;12.93;;;8.27;;
59442;SDS011;45247;47.466;19.004;2022-07-24T01:57:23;11.38;;;7.85;;
59442;SDS011;45247;47.466;19.004;2022-07-24T01:59:55;13.55;;;8.00;;
59442;SDS011;45247;47.466;19.004;2022-07-24T02:02:24;18.80;;;8.60;;
59442;SDS011;45247;47.466;19.004;2022-07-24T02:04:52;15.50;;;8.38;;
59442;SDS011;45247;47.466;19.004;2022-07-24T02:07:21;12.60;;;8.02;;
59442;SDS011;45247;47.466;19.004;2022-07-24T02:09:49;11.45;;;6.88;;
59442;SDS011;45247;47.466;19.004;2022-07-24T02:12:17;11.02;;;7.35;;
59442;SDS011;45247;47.466;19.004;2022-07-24T02:14:46;15.23;;;7.78;;
59442;SDS011;45247;47.466;19.004;2022-07-24T02:17:14;13.57;;;8.13;;
59442;SDS011;45247;47.466;19.004;2022-07-24T02:19:43;14.75;;;7.97;;
59442;SDS011;45247;47.466;19.004;2022-07-24T02:22:11;11.93;;;6.95;;
59442;SDS011;45247;47.466;19.004;2022-07-24T02:24:39;9.73;;;7.43;;
59442;SDS011;45247;47.466;19.004;2022-07-24T02:27:07;9.60;;;7.53;;
59442;SDS011;45247;47.466;19.004;2022-07-24T02:29:35;9.65;;;7.28;;
59442;SDS011;45247;47.466;19.004;2022-07-24T02:32:05;13.30;;;7.97;;
59442;SDS011;45247;47.466;19.004;2022-07-24T02:34:34;12.07;;;7.15;;
59442;SDS011;45247;47.466;19.004;2022-07-24T02:37:03;14.93;;;8.30;;
59442;SDS011;45247;47.466;19.004;2022-07-24T02:39:31;11.95;;;7.32;;
59442;SDS011;45247;47.466;19.004;2022-07-24T02:41:59;15.35;;;8.60;;
59442;SDS011;45247;47.466;19.004;2022-07-24T02:44:27;16.55;;;8.30;;
59442;SDS011;45247;47.466;19.004;2022-07-24T02:46:55;15.27;;;7.30;;
59442;SDS011;45247;47.466;19.004;2022-07-24T02:49:25;12.75;;;8.65;;
59442;SDS011;45247;47.466;19.004;2022-07-24T02:51:53;15.00;;;8.80;;
59442;SDS011;45247;47.466;19.004;2022-07-24T02:54:21;10.88;;;8.00;;
59442;SDS011;45247;47.466;19.004;2022-07-24T02:56:49;13.15;;;9.07;;
59442;SDS011;45247;47.466;19.004;2022-07-24T02:59:17;17.00;;;7.88;;
59442;SDS011;45247;47.466;19.004;2022-07-24T03:01:45;11.85;;;8.02;;
59442;SDS011;45247;47.466;19.004;2022-07-24T03:04:14;10.98;;;8.02;;
59442;SDS011;45247;47.466;19.004;2022-07-24T03:06:44;14.63;;;8.50;;
59442;SDS011;45247;47.466;19.004;2022-07-24T03:09:12;12.30;;;8.00;;
59442;SDS011;45247;47.466;19.004;2022-07-24T03:11:40;9.82;;;7.45;;
59442;SDS011;45247;47.466;19.004;2022-07-24T03:14:08;13.13;;;7.95;;
59442;SDS011;45247;47.466;19.004;2022-07-24T03:16:36;13.45;;;8.23;;
59442;SDS011;45247;47.466;19.004;2022-07-24T03:19:04;14.30;;;7.82;;
59442;SDS011;45247;47.466;19.004;2022-07-24T03:21:33;12.45;;;8.25;;
59442;SDS011;45247;47.466;19.004;2022-07-24T03:24:18;9.07;;;7.85;;
59442;SDS011;45247;47.466;19.004;2022-07-24T03:26:46;13.85;;;7.93;;
59442;SDS011;45247;47.466;19.004;2022-07-24T03:29:14;10.00;;;8.05;;
59442;SDS011;45247;47.466;19.004;2022-07-24T03:31:43;12.95;;;8.10;;
59442;SDS011;45247;47.466;19.004;2022-07-24T03:34:11;12.65;;;8.43;;
59442;SDS011;45247;47.466;19.004;2022-07-24T03:36:39;12.80;;;7.55;;
59442;SDS011;45247;47.466;19.004;2022-07-24T03:39:08;13.70;;;7.97;;
59442;SDS011;45247;47.466;19.004;2022-07-24T03:41:37;12.73;;;8.43;;
59442;SDS011;45247;47.466;19.004;2022-07-24T03:44:05;17.15;;;7.72;;
59442;SDS011;45247;47.466;19.004;2022-07-24T03:46:33;13.27;;;9.05;;
59442;SDS011;45247;47.466;19.004;2022-07-24T03:49:02;12.48;;;7.85;;
59442;SDS011;45247;47.466;19.004;2022-07-24T03:51:32;16.35;;;7.90;;
59442;SDS011;45247;47.466;19.004;2022-07-24T03:54:03;12.82;;;8.20;;
59442;SDS011;45247;47.466;19.004;2022-07-24T03:56:31;12.80;;;8.45;;
59442;SDS011;45247;47.466;19.004;2022-07-24T03:59:01;11.68;;;9.38;;
59442;SDS011;45247;47.466;19.004;2022-07-24T04:01:29;17.02;;;10.20;;
59442;SDS011;45247;47.466;19.004;2022-07-24T04:03:58;13.15;;;9.52;;
59442;SDS011;45247;47.466;19.004;2022-07-24T04:06:31;20.58;;;9.98;;
59442;SDS011;45247;47.466;19.004;2022-07-24T04:09:03;15.05;;;10.23;;
59442;SDS011;45247;47.466;19.004;2022-07-24T04:11:33;13.90;;;9.27;;
59442;SDS011;45247;47.466;19.004;2022-07-24T04:14:02;13.48;;;9.30;;
59442;SDS011;45247;47.466;19.004;2022-07-24T04:16:31;14.07;;;8.40;;
59442;SDS011;45247;47.466;19.004;2022-07-24T04:18:59;18.30;;;8.05;;
59442;SDS011;45247;47.466;19.004;2022-07-24T04:21:32;13.07;;;8.10;;
59442;SDS011;45247;47.466;19.004;2022-07-24T04:24:00;13.38;;;8.23;;
59442;SDS011;45247;47.466;19.004;2022-07-24T04:26:28;12.55;;;7.55;;
59442;SDS011;45247;47.466;19.004;2022-07-24T04:28:57;14.35;;;7.50;;
59442;SDS011;45247;47.466;19.004;2022-07-24T04:31:26;15.20;;;7.88;;
59442;SDS011;45247;47.466;19.004;2022-07-24T04:33:57;11.27;;;7.22;;
59442;SDS011;45247;47.466;19.004;2022-07-24T04:36:25;15.80;;;7.80;;
59442;SDS011;45247;47.466;19.004;2022-07-24T04:38:54;12.30;;;8.13;;
59442;SDS011;45247;47.466;19.004;2022-07-24T04:41:22;10.93;;;8.00;;
59442;SDS011;45247;47.466;19.004;2022-07-24T04:43:50;13.05;;;7.47;;
59442;SDS011;45247;47.466;19.004;2022-07-24T04:46:18;11.70;;;8.00;;
59442;SDS011;45247;47.466;19.004;2022-07-24T04:48:48;11.55;;;8.30;;
59442;SDS011;45247;47.466;19.004;2022-07-24T04:51:16;11.82;;;8.27;;
59442;SDS011;45247;47.466;19.004;2022-07-24T04:53:44;11.25;;;7.93;;
59442;SDS011;45247;47.466;19.004;2022-07-24T04:56:13;15.48;;;8.07;;
59442;SDS011;45247;47.466;19.004;2022-07-24T04:58:41;13.60;;;8.80;;
59442;SDS011;45247;47.466;19.004;2022-07-24T05:01:09;14.48;;;8.77;;
59442;SDS011;45247;47.466;19.004;2022-07-24T05:03:37;11.10;;;8.73;;
59442;SDS011;45247;47.466;19.004;2022-07-24T05:06:07;11.35;;;8.57;;
59442;SDS011;45247;47.466;19.004;2022-07-24T05:08:35;10.85;;;9.10;;
59442;SDS011;45247;47.466;19.004;2022-07-24T05:11:04;15.93;;;10.45;;
59442;SDS011;45247;47.466;19.004;2022-07-24T05:13:32;11.35;;;9.70;;
59442;SDS011;45247;47.466;19.004;2022-07-24T05:16:00;14.95;;;9.52;;
59442;SDS011;45247;47.466;19.004;2022-07-24T05:18:28;18.80;;;9.90;;
59442;SDS011;45247;47.466;19.004;2022-07-24T05:20:56;14.63;;;9.95;;
59442;SDS011;45247;47.466;19.004;2022-07-24T05:23:26;13.15;;;9.75;;
59442;SDS011;45247;47.466;19.004;2022-07-24T05:25:55;18.25;;;11.30;;
59442;SDS011;45247;47.466;19.004;2022-07-24T05:28:23;16.98;;;10.05;;
59442;SDS011;45247;47.466;19.004;2022-07-24T05:30:52;14.27;;;10.27;;
59442;SDS011;45247;47.466;19.004;2022-07-24T05:33:20;17.30;;;10.60;;
59442;SDS011;45247;47.466;19.004;2022-07-24T05:35:48;23.10;;;10.65;;
59442;SDS011;45247;47.466;19.004;2022-07-24T05:38:16;14.43;;;10.52;;
59442;SDS011;45247;47.466;19.004;2022-07-24T05:40:47;15.48;;;11.43;;
59442;SDS011;45247;47.466;19.004;2022-07-24T05:43:15;15.80;;;10.90;;
59442;SDS011;45247;47.466;19.004;2022-07-24T05:45:44;16.13;;;11.00;;
59442;SDS011;45247;47.466;19.004;2022-07-24T05:48:12;15.57;;;11.00;;
59442;SDS011;45247;47.466;19.004;2022-07-24T05:50:40;13.85;;;10.50;;
59442;SDS011;45247;47.466;19.004;2022-07-24T05:53:08;14.90;;;10.48;;
59442;SDS011;45247;47.466;19.004;2022-07-24T05:55:36;18.75;;;10.40;;
59442;SDS011;45247;47.466;19.004;2022-07-24T05:58:06;15.90;;;10.50;;
59442;SDS011;45247;47.466;19.004;2022-07-24T06:00:34;18.80;;;10.73;;
59442;SDS011;45247;47.466;19.004;2022-07-24T06:03:02;15.00;;;11.05;;
59442;SDS011;45247;47.466;19.004;2022-07-24T06:05:30;18.63;;;11.80;;
59442;SDS011;45247;47.466;19.004;2022-07-24T06:07:58;21.25;;;11.15;;
59442;SDS011;45247;47.466;19.004;2022-07-24T06:10:27;22.42;;;11.43;;
59442;SDS011;45247;47.466;19.004;2022-07-24T06:12:55;15.63;;;10.90;;
59442;SDS011;45247;47.466;19.004;2022-07-24T06:15:26;13.27;;;11.13;;
59442;SDS011;45247;47.466;19.004;2022-07-24T06:17:55;13.77;;;10.90;;
59442;SDS011;45247;47.466;19.004;2022-07-24T06:20:23;17.02;;;11.40;;
59442;SDS011;45247;47.466;19.004;2022-07-24T06:22:51;18.20;;;11.90;;
59442;SDS011;45247;47.466;19.004;2022-07-24T06:25:19;19.13;;;12.65;;
59442;SDS011;45247;47.466;19.004;2022-07-24T06:27:49;15.00;;;12.77;;
59442;SDS011;45247;47.466;19.004;2022-07-24T06:30:20;15.50;;;10.90;;
59442;SDS011;45247;47.466;19.004;2022-07-24T06:32:51;13.48;;;11.30;;
59442;SDS011;45247;47.466;19.004;2022-07-24T06:35:21;17.55;;;11.82;;
59442;SDS011;45247;47.466;19.004;2022-07-24T06:37:50;18.00;;;11.30;;
59442;SDS011;45247;47.466;19.004;2022-07-24T06:40:18;22.42;;;12.15;;
59442;SDS011;45247;47.466;19.004;2022-07-24T06:42:47;17.08;;;11.55;;
59442;SDS011;45247;47.466;19.004;2022-07-24T06:45:16;17.70;;;12.80;;
59442;SDS011;45247;47.466;19.004;2022-07-24T06:47:44;13.52;;;11.57;;
59442;SDS011;45247;47.466;19.004;2022-07-24T06:50:14;16.23;;;11.90;;
59442;SDS011;45247;47.466;19.004;2022-07-24T06:52:43;16.45;;;12.00;;
59442;SDS011;45247;47.466;19.004;2022-07-24T06:55:12;14.65;;;11.77;;
59442;SDS011;45247;47.466;19.004;2022-07-24T06:57:40;17.20;;;11.63;;
59442;SDS011;45247;47.466;19.004;2022-07-24T07:00:08;19.30;;;13.10;;
59442;SDS011;45247;47.466;19.004;2022-07-24T07:02:38;17.35;;;12.10;;
59442;SDS011;45247;47.466;19.004;2022-07-24T07:05:06;14.50;;;10.85;;
59442;SDS011;45247;47.466;19.004;2022-07-24T07:07:37;13.18;;;11.23;;
59442;SDS011;45247;47.466;19.004;2022-07-24T07:10:06;16.48;;;11.38;;
59442;SDS011;45247;47.466;19.004;2022-07-24T07:12:35;15.10;;;11.60;;
59442;SDS011;45247;47.466;19.004;2022-07-24T07:17:36;15.27;;;11.15;;
59442;SDS011;45247;47.466;19.004;2022-07-24T07:20:05;14.02;;;12.02;;
59442;SDS011;45247;47.466;19.004;2022-07-24T07:22:35;14.15;;;11.80;;
59442;SDS011;45247;47.466;19.004;2022-07-24T07:25:04;15.25;;;10.88;;
59442;SDS011;45247;47.466;19.004;2022-07-24T07:27:33;14.45;;;10.60;;
59442;SDS011;45247;47.466;19.004;2022-07-24T07:30:02;14.95;;;11.02;;
59442;SDS011;45247;47.466;19.004;2022-07-24T07:32:31;13.75;;;10.85;;
59442;SDS011;45247;47.466;19.004;2022-07-24T07:34:59;14.55;;;10.88;;
59442;SDS011;45247;47.466;19.004;2022-07-24T07:37:30;15.57;;;11.13;;
59442;SDS011;45247;47.466;19.004;2022-07-24T07:40:00;14.00;;;11.05;;
59442;SDS011;45247;47.466;19.004;2022-07-24T07:42:28;14.30;;;11.20;;
59442;SDS011;45247;47.466;19.004;2022-07-24T07:44:56;14.98;;;11.38;;
59442;SDS011;45247;47.466;19.004;2022-07-24T07:47:24;13.43;;;11.10;;
59442;SDS011;45247;47.466;19.004;2022-07-24T07:49:53;12.68;;;10.27;;
59442;SDS011;45247;47.466;19.004;2022-07-24T07:52:21;11.85;;;9.60;;
59442;SDS011;45247;47.466;19.004;2022-07-24T07:54:50;21.00;;;11.25;;
59442;SDS011;45247;47.466;19.004;2022-07-24T07:57:20;16.85;;;10.77;;
59442;SDS011;45247;47.466;19.004;2022-07-24T08:00:09;15.40;;;9.93;;
59442;SDS011;45247;47.466;19.004;2022-07-24T08:02:38;12.98;;;10.98;;
59442;SDS011;45247;47.466;19.004;2022-07-24T08:05:07;17.52;;;12.82;;
59442;SDS011;45247;47.466;19.004;2022-07-24T08:07:36;17.38;;;11.80;;
59442;SDS011;45247;47.466;19.004;2022-07-24T08:10:04;16.80;;;10.98;;
59442;SDS011;45247;47.466;19.004;2022-07-24T08:12:38;18.92;;;11.90;;
59442;SDS011;45247;47.466;19.004;2022-07-24T08:15:06;14.93;;;12.05;;
59442;SDS011;45247;47.466;19.004;2022-07-24T08:17:35;16.20;;;10.95;;
59442;SDS011;45247;47.466;19.004;2022-07-24T08:20:04;15.48;;;12.00;;
59442;SDS011;45247;47.466;19.004;2022-07-24T08:22:32;15.63;;;11.30;;
59442;SDS011;45247;47.466;19.004;2022-07-24T08:25:01;18.10;;;11.48;;
59442;SDS011;45247;47.466;19.004;2022-07-24T08:27:30;13.55;;;10.85;;
59442;SDS011;45247;47.466;19.004;2022-07-24T08:29:59;14.30;;;11.90;;
59442;SDS011;45247;47.466;19.004;2022-07-24T08:32:27;16.88;;;12.80;;
59442;SDS011;45247;47.466;19.004;2022-07-24T08:34:56;17.17;;;11.75;;
59442;SDS011;45247;47.466;19.004;2022-07-24T08:37:24;20.10;;;12.10;;
59442;SDS011;45247;47.466;19.004;2022-07-24T08:39:52;20.55;;;13.73;;
59442;SDS011;45247;47.466;19.004;2022-07-24T08:42:21;15.82;;;11.85;;
59442;SDS011;45247;47.466;19.004;2022-07-24T08:44:49;15.07;;;11.93;;
59442;SDS011;45247;47.466;19.004;2022-07-24T08:47:19;17.02;;;12.18;;
59442;SDS011;45247;47.466;19.004;2022-07-24T08:49:49;17.50;;;12.00;;
59442;SDS011;45247;47.466;19.004;2022-07-24T08:52:21;16.00;;;12.85;;
59442;SDS011;45247;47.466;19.004;2022-07-24T08:54:50;14.43;;;10.70;;
59442;SDS011;45247;47.466;19.004;2022-07-24T08:57:20;14.85;;;10.68;;
59442;SDS011;45247;47.466;19.004;2022-07-24T08:59:48;11.75;;;9.85;;
59442;SDS011;45247;47.466;19.004;2022-07-24T09:02:16;14.18;;;9.63;;
59442;SDS011;45247;47.466;19.004;2022-07-24T09:04:46;12.27;;;10.23;;
59442;SDS011;45247;47.466;19.004;2022-07-24T09:07:17;15.32;;;9.82;;
59442;SDS011;45247;47.466;19.004;2022-07-24T09:09:57;12.55;;;9.77;;
59442;SDS011;45247;47.466;19.004;2022-07-24T09:12:30;12.98;;;9.48;;
59442;SDS011;45247;47.466;19.004;2022-07-24T09:15:00;12.60;;;10.65;;
59442;SDS011;45247;47.466;19.004;2022-07-24T09:17:29;16.73;;;10.98;;
59442;SDS011;45247;47.466;19.004;2022-07-24T09:20:00;12.18;;;10.05;;
59442;SDS011;45247;47.466;19.004;2022-07-24T09:25:09;19.13;;;10.60;;
59442;SDS011;45247;47.466;19.004;2022-07-24T09:27:45;12.02;;;10.23;;
59442;SDS011;45247;47.466;19.004;2022-07-24T09:30:22;12.25;;;10.43;;
59442;SDS011;45247;47.466;19.004;2022-07-24T09:32:53;17.33;;;11.15;;
59442;SDS011;45247;47.466;19.004;2022-07-24T09:35:24;12.75;;;11.13;;
59442;SDS011;45247;47.466;19.004;2022-07-24T09:37:58;13.23;;;10.68;;
59442;SDS011;45247;47.466;19.004;2022-07-24T09:40:28;16.05;;;10.80;;
59442;SDS011;45247;47.466;19.004;2022-07-24T09:43:17;13.82;;;11.20;;
59442;SDS011;45247;47.466;19.004;2022-07-24T09:45:52;14.40;;;10.85;;
59442;SDS011;45247;47.466;19.004;2022-07-24T09:48:22;15.52;;;11.52;;
59442;SDS011;45247;47.466;19.004;2022-07-24T09:50:54;14.23;;;11.85;;
59442;SDS011;45247;47.466;19.004;2022-07-24T09:53:25;17.00;;;11.30;;
59442;SDS011;45247;47.466;19.004;2022-07-24T09:56:04;16.10;;;11.57;;
59442;SDS011;45247;47.466;19.004;2022-07-24T09:58:35;15.38;;;10.65;;
59442;SDS011;45247;47.466;19.004;2022-07-24T10:01:05;15.43;;;11.82;;
59442;SDS011;45247;47.466;19.004;2022-07-24T10:03:37;13.02;;;10.73;;
59442;SDS011;45247;47.466;19.004;2022-07-24T10:06:09;19.42;;;11.65;;
59442;SDS011;45247;47.466;19.004;2022-07-24T10:08:39;14.05;;;11.32;;
59442;SDS011;45247;47.466;19.004;2022-07-24T10:11:08;14.35;;;10.90;;
59442;SDS011;45247;47.466;19.004;2022-07-24T10:13:38;11.57;;;10.13;;
59442;SDS011;45247;47.466;19.004;2022-07-24T10:16:26;17.73;;;10.60;;
59442;SDS011;45247;47.466;19.004;2022-07-24T10:18:58;13.40;;;10.23;;
59442;SDS011;45247;47.466;19.004;2022-07-24T10:21:30;18.20;;;10.70;;
59442;SDS011;45247;47.466;19.004;2022-07-24T10:27:03;14.18;;;10.75;;
59442;SDS011;45247;47.466;19.004;2022-07-24T10:29:33;13.48;;;10.20;;
59442;SDS011;45247;47.466;19.004;2022-07-24T10:32:02;16.67;;;10.40;;
59442;SDS011;45247;47.466;19.004;2022-07-24T10:34:32;11.32;;;9.77;;
59442;SDS011;45247;47.466;19.004;2022-07-24T10:37:11;15.95;;;9.57;;
59442;SDS011;45247;47.466;19.004;2022-07-24T10:39:50;14.32;;;10.48;;
59442;SDS011;45247;47.466;19.004;2022-07-24T10:42:26;12.65;;;9.40;;
59442;SDS011;45247;47.466;19.004;2022-07-24T10:45:13;14.82;;;9.60;;
59442;SDS011;45247;47.466;19.004;2022-07-24T10:47:43;15.00;;;8.90;;
59442;SDS011;45247;47.466;19.004;2022-07-24T10:50:12;13.63;;;8.88;;
59442;SDS011;45247;47.466;19.004;2022-07-24T10:52:44;10.82;;;9.05;;
59442;SDS011;45247;47.466;19.004;2022-07-24T10:58:11;12.45;;;9.20;;
59442;SDS011;45247;47.466;19.004;2022-07-24T11:00:43;11.52;;;9.13;;
59442;SDS011;45247;47.466;19.004;2022-07-24T11:03:19;11.73;;;9.05;;
59442;SDS011;45247;47.466;19.004;2022-07-24T11:08:37;12.75;;;9.48;;
59442;SDS011;45247;47.466;19.004;2022-07-24T11:11:07;14.07;;;9.27;;
59442;SDS011;45247;47.466;19.004;2022-07-24T11:13:40;13.45;;;9.52;;
59442;SDS011;45247;47.466;19.004;2022-07-24T11:16:20;13.98;;;8.50;;
59442;SDS011;45247;47.466;19.004;2022-07-24T11:22:03;11.15;;;8.02;;
59442;SDS011;45247;47.466;19.004;2022-07-24T11:24:40;9.88;;;7.35;;
59442;SDS011;45247;47.466;19.004;2022-07-24T11:27:16;20.35;;;8.57;;
59442;SDS011;45247;47.466;19.004;2022-07-24T11:29:50;12.25;;;9.07;;
59442;SDS011;45247;47.466;19.004;2022-07-24T11:32:20;11.90;;;8.60;;
59442;SDS011;45247;47.466;19.004;2022-07-24T11:34:48;10.82;;;7.88;;
59442;SDS011;45247;47.466;19.004;2022-07-24T11:37:18;12.10;;;7.72;;
59442;SDS011;45247;47.466;19.004;2022-07-24T11:39:48;10.52;;;7.78;;
59442;SDS011;45247;47.466;19.004;2022-07-24T11:42:17;9.18;;;7.50;;
59442;SDS011;45247;47.466;19.004;2022-07-24T11:44:46;9.15;;;6.65;;
59442;SDS011;45247;47.466;19.004;2022-07-24T11:47:15;10.75;;;6.95;;
59442;SDS011;45247;47.466;19.004;2022-07-24T11:49:45;9.63;;;6.90;;
59442;SDS011;45247;47.466;19.004;2022-07-24T11:52:17;8.60;;;7.25;;
59442;SDS011;45247;47.466;19.004;2022-07-24T11:54:46;8.82;;;7.15;;
59442;SDS011;45247;47.466;19.004;2022-07-24T11:57:19;8.32;;;5.95;;
59442;SDS011;45247;47.466;19.004;2022-07-24T12:00:09;12.38;;;6.60;;
59442;SDS011;45247;47.466;19.004;2022-07-24T12:02:42;12.63;;;7.53;;
59442;SDS011;45247;47.466;19.004;2022-07-24T12:05:12;8.55;;;6.72;;
59442;SDS011;45247;47.466;19.004;2022-07-24T12:07:40;9.45;;;6.63;;
59442;SDS011;45247;47.466;19.004;2022-07-24T12:10:10;8.35;;;6.70;;
59442;SDS011;45247;47.466;19.004;2022-07-24T12:12:39;9.35;;;6.80;;
59442;SDS011;45247;47.466;19.004;2022-07-24T12:15:08;10.50;;;6.47;;
59442;SDS011;45247;47.466;19.004;2022-07-24T12:17:53;7.85;;;6.05;;
59442;SDS011;45247;47.466;19.004;2022-07-24T12:20:24;13.57;;;6.55;;
59442;SDS011;45247;47.466;19.004;2022-07-24T12:22:53;7.80;;;6.20;;
59442;SDS011;45247;47.466;19.004;2022-07-24T12:25:23;7.80;;;5.60;;
59442;SDS011;45247;47.466;19.004;2022-07-24T12:28:01;10.63;;;6.38;;
59442;SDS011;45247;47.466;19.004;2022-07-24T12:30:31;7.60;;;5.90;;
59442;SDS011;45247;47.466;19.004;2022-07-24T12:33:01;7.53;;;5.50;;
59442;SDS011;45247;47.466;19.004;2022-07-24T12:35:32;8.57;;;5.65;;
59442;SDS011;45247;47.466;19.004;2022-07-24T12:38:02;7.47;;;5.80;;
59442;SDS011;45247;47.466;19.004;2022-07-24T12:40:33;7.40;;;5.68;;
59442;SDS011;45247;47.466;19.004;2022-07-24T12:43:06;8.60;;;5.47;;
59442;SDS011;45247;47.466;19.004;2022-07-24T12:45:36;9.18;;;5.70;;
59442;SDS011;45247;47.466;19.004;2022-07-24T12:48:06;9.43;;;6.45;;
59442;SDS011;45247;47.466;19.004;2022-07-24T12:50:36;7.30;;;5.82;;
59442;SDS011;45247;47.466;19.004;2022-07-24T12:53:22;8.15;;;6.15;;
59442;SDS011;45247;47.466;19.004;2022-07-24T12:56:02;9.98;;;6.18;;
59442;SDS011;45247;47.466;19.004;2022-07-24T12:58:47;8.40;;;5.85;;
59442;SDS011;45247;47.466;19.004;2022-07-24T13:01:42;9.55;;;6.35;;
59442;SDS011;45247;47.466;19.004;2022-07-24T13:04:12;7.35;;;5.93;;
59442;SDS011;45247;47.466;19.004;2022-07-24T13:06:43;7.32;;;5.65;;
59442;SDS011;45247;47.466;19.004;2022-07-24T13:09:14;7.80;;;5.53;;
59442;SDS011;45247;47.466;19.004;2022-07-24T13:11:46;8.38;;;5.53;;
59442;SDS011;45247;47.466;19.004;2022-07-24T13:16:45;8.50;;;5.97;;
59442;SDS011;45247;47.466;19.004;2022-07-24T13:19:14;9.38;;;5.80;;
59442;SDS011;45247;47.466;19.004;2022-07-24T13:21:43;7.32;;;6.07;;
59442;SDS011;45247;47.466;19.004;2022-07-24T13:24:13;8.15;;;5.40;;
59442;SDS011;45247;47.466;19.004;2022-07-24T13:26:49;7.82;;;5.80;;
59442;SDS011;45247;47.466;19.004;2022-07-24T13:29:23;11.82;;;5.88;;
59442;SDS011;45247;47.466;19.004;2022-07-24T13:31:52;8.02;;;5.22;;
59442;SDS011;45247;47.466;19.004;2022-07-24T13:34:21;7.53;;;5.32;;
59442;SDS011;45247;47.466;19.004;2022-07-24T13:36:49;7.88;;;5.55;;
59442;SDS011;45247;47.466;19.004;2022-07-24T13:39:17;10.77;;;5.22;;
59442;SDS011;45247;47.466;19.004;2022-07-24T13:41:46;6.47;;;4.90;;
59442;SDS011;45247;47.466;19.004;2022-07-24T13:44:15;7.80;;;4.82;;
59442;SDS011;45247;47.466;19.004;2022-07-24T13:46:44;10.50;;;5.60;;
59442;SDS011;45247;47.466;19.004;2022-07-24T13:49:12;6.75;;;5.20;;
59442;SDS011;45247;47.466;19.004;2022-07-24T13:51:41;7.25;;;5.32;;
59442;SDS011;45247;47.466;19.004;2022-07-24T13:54:09;6.95;;;5.32;;
59442;SDS011;45247;47.466;19.004;2022-07-24T13:56:38;8.98;;;4.97;;
59442;SDS011;45247;47.466;19.004;2022-07-24T13:59:06;10.18;;;5.25;;
59442;SDS011;45247;47.466;19.004;2022-07-24T14:01:36;6.85;;;5.10;;
59442;SDS011;45247;47.466;19.004;2022-07-24T14:04:04;8.85;;;5.55;;
59442;SDS011;45247;47.466;19.004;2022-07-24T14:06:55;12.27;;;5.07;;
59442;SDS011;45247;47.466;19.004;2022-07-24T14:09:23;9.60;;;4.50;;
59442;SDS011;45247;47.466;19.004;2022-07-24T14:12:10;10.98;;;5.55;;
59442;SDS011;45247;47.466;19.004;2022-07-24T14:14:39;10.27;;;5.65;;
59442;SDS011;45247;47.466;19.004;2022-07-24T14:17:09;7.88;;;5.10;;
59442;SDS011;45247;47.466;19.004;2022-07-24T14:19:38;8.35;;;4.65;;
59442;SDS011;45247;47.466;19.004;2022-07-24T14:22:06;6.57;;;4.18;;
59442;SDS011;45247;47.466;19.004;2022-07-24T14:24:34;15.18;;;4.78;;
59442;SDS011;45247;47.466;19.004;2022-07-24T14:27:05;7.93;;;4.68;;
59442;SDS011;45247;47.466;19.004;2022-07-24T14:29:33;10.63;;;4.85;;
59442;SDS011;45247;47.466;19.004;2022-07-24T14:32:02;11.43;;;4.90;;
59442;SDS011;45247;47.466;19.004;2022-07-24T14:34:31;8.98;;;4.60;;
59442;SDS011;45247;47.466;19.004;2022-07-24T14:37:00;9.52;;;4.75;;
59442;SDS011;45247;47.466;19.004;2022-07-24T14:39:28;6.25;;;4.88;;
59442;SDS011;45247;47.466;19.004;2022-07-24T14:41:57;8.55;;;4.60;;
59442;SDS011;45247;47.466;19.004;2022-07-24T14:44:25;6.68;;;4.60;;
59442;SDS011;45247;47.466;19.004;2022-07-24T14:46:53;7.45;;;4.50;;
59442;SDS011;45247;47.466;19.004;2022-07-24T14:49:21;7.38;;;4.53;;
59442;SDS011;45247;47.466;19.004;2022-07-24T14:51:51;6.43;;;4.60;;
59442;SDS011;45247;47.466;19.004;2022-07-24T14:54:20;11.15;;;4.63;;